createdAt,value
2019-05-18T00:00:23.043Z,14.39
2019-05-18T00:01:23.039Z,14.43
2019-05-18T00:02:23.028Z,14.36
2019-05-18T00:03:23.010Z,14.42
2019-05-18T00:04:23.004Z,14.35
2019-05-18T00:05:22.986Z,14.32
2019-05-18T00:06:22.978Z,14.35
2019-05-18T00:07:22.994Z,14.43
2019-05-18T00:08:22.976Z,14.33
2019-05-18T00:09:22.979Z,14.24
2019-05-18T00:10:22.939Z,14.25
2019-05-18T00:11:22.925Z,14.27
2019-05-18T00:12:22.928Z,14.24
2019-05-18T00:13:22.948Z,14.24
2019-05-18T00:14:22.920Z,14.15
2019-05-18T00:15:22.879Z,14.29
2019-05-18T00:16:22.872Z,14.10
2019-05-18T00:17:25.253Z,14.20
2019-05-18T00:18:22.853Z,14.21
2019-05-18T00:19:22.842Z,14.10
2019-05-18T00:20:22.823Z,14.20
2019-05-18T00:21:22.811Z,14.20
2019-05-18T00:22:22.799Z,14.18
2019-05-18T00:23:22.793Z,14.20
2019-05-18T00:24:22.795Z,14.06
2019-05-18T00:25:22.767Z,13.97
2019-05-18T00:26:22.757Z,14.03
2019-05-18T00:27:22.744Z,14.06
2019-05-18T00:28:22.741Z,14.06
2019-05-18T00:29:22.749Z,14.07
2019-05-18T00:30:22.726Z,14.03
2019-05-18T00:31:22.719Z,14.00
2019-05-18T00:32:22.696Z,14.00
2019-05-18T00:33:22.681Z,14.02
2019-05-18T00:34:22.687Z,14.07
2019-05-18T00:35:22.666Z,14.07
2019-05-18T00:36:22.648Z,14.04
2019-05-18T00:37:22.644Z,14.04
2019-05-18T00:38:22.635Z,14.03
2019-05-18T00:39:22.622Z,13.97
2019-05-18T00:40:22.608Z,13.92
2019-05-18T00:41:22.600Z,13.87
2019-05-18T00:42:22.656Z,13.88
2019-05-18T00:43:22.578Z,13.85
2019-05-18T00:44:22.557Z,13.88
2019-05-18T00:45:22.553Z,13.87
2019-05-18T00:46:22.543Z,13.84
2019-05-18T00:47:22.544Z,13.85
2019-05-18T00:48:22.527Z,13.88
2019-05-18T00:49:22.515Z,13.89
2019-05-18T00:50:22.511Z,13.88
2019-05-18T00:51:23.391Z,13.84
2019-05-18T00:52:22.477Z,13.87
2019-05-18T00:53:22.457Z,13.85
2019-05-18T00:54:22.456Z,13.87
2019-05-18T00:55:22.445Z,13.85
2019-05-18T00:56:22.426Z,13.79
2019-05-18T00:57:22.410Z,13.81
2019-05-18T00:58:22.403Z,13.79
2019-05-18T00:59:22.388Z,13.81
2019-05-18T01:00:22.446Z,13.84
2019-05-18T01:01:22.407Z,13.84
2019-05-18T01:02:22.368Z,13.78
2019-05-18T01:03:22.343Z,13.69
2019-05-18T01:04:22.354Z,13.66
2019-05-18T01:05:22.357Z,13.67
2019-05-18T01:06:22.337Z,13.69
2019-05-18T01:07:22.300Z,13.70
2019-05-18T01:08:22.292Z,13.66
2019-05-18T01:09:22.290Z,13.71
2019-05-18T01:10:22.277Z,13.63
2019-05-18T01:11:22.263Z,13.64
2019-05-18T01:12:22.254Z,13.70
2019-05-18T01:13:22.241Z,13.70
2019-05-18T01:14:22.223Z,13.75
2019-05-18T01:15:22.220Z,13.71
2019-05-18T01:16:24.269Z,13.67
2019-05-18T01:17:22.209Z,13.71
2019-05-18T01:18:22.175Z,13.63
2019-05-18T01:19:22.160Z,13.73
2019-05-18T01:20:22.167Z,13.73
2019-05-18T01:21:22.164Z,13.66
2019-05-18T01:22:22.143Z,13.63
2019-05-18T01:23:22.153Z,13.60
2019-05-18T01:24:22.106Z,13.60
2019-05-18T01:25:22.113Z,13.63
2019-05-18T01:26:22.105Z,13.69
2019-05-18T01:27:22.110Z,13.69
2019-05-18T01:28:22.065Z,13.69
2019-05-18T01:29:22.063Z,13.62
2019-05-18T01:30:22.047Z,13.64
2019-05-18T01:31:22.029Z,13.66
2019-05-18T01:32:26.732Z,13.60
2019-05-18T01:33:22.030Z,13.66
2019-05-18T01:34:22.014Z,13.63
2019-05-18T01:35:22.009Z,13.64
2019-05-18T01:36:21.973Z,13.57
2019-05-18T01:37:21.964Z,13.62
2019-05-18T01:38:21.953Z,13.59
2019-05-18T01:39:21.942Z,13.64
2019-05-18T01:40:21.954Z,13.57
2019-05-18T01:41:21.925Z,13.64
2019-05-18T01:42:21.928Z,13.57
2019-05-18T01:43:21.895Z,13.63
2019-05-18T01:44:21.890Z,13.60
2019-05-18T01:45:21.878Z,13.62
2019-05-18T01:46:21.857Z,13.62
2019-05-18T01:47:21.843Z,13.59
2019-05-18T01:48:21.837Z,13.59
2019-05-18T01:49:21.824Z,13.57
2019-05-18T01:50:21.826Z,13.59
2019-05-18T01:51:21.802Z,13.57
2019-05-18T01:52:21.798Z,13.52
2019-05-18T01:53:21.791Z,13.52
2019-05-18T01:54:21.763Z,13.52
2019-05-18T01:55:21.770Z,13.46
2019-05-18T01:56:21.746Z,13.55
2019-05-18T01:57:21.733Z,13.55
2019-05-18T01:58:21.722Z,13.46
2019-05-18T01:59:21.710Z,13.48
2019-05-18T02:00:24.694Z,13.49
2019-05-18T02:01:21.729Z,13.45
2019-05-18T02:02:21.676Z,13.45
2019-05-18T02:03:21.708Z,13.48
2019-05-18T02:04:21.655Z,13.51
2019-05-18T02:05:21.640Z,13.44
2019-05-18T02:06:21.653Z,13.48
2019-05-18T02:07:21.643Z,13.52
2019-05-18T02:08:21.633Z,13.54
2019-05-18T02:09:21.597Z,13.51
2019-05-18T02:10:21.586Z,13.45
2019-05-18T02:11:21.581Z,13.48
2019-05-18T02:12:21.557Z,13.42
2019-05-18T02:13:21.558Z,13.39
2019-05-18T02:14:21.550Z,13.45
2019-05-18T02:15:21.528Z,13.42
2019-05-18T02:16:21.531Z,13.44
2019-05-18T02:17:21.506Z,13.45
2019-05-18T02:18:29.185Z,13.36
2019-05-18T02:19:24.828Z,13.44
2019-05-18T02:20:21.501Z,13.39
2019-05-18T02:21:21.507Z,13.36
2019-05-18T02:22:21.451Z,13.36
2019-05-18T02:23:21.453Z,13.32
2019-05-18T02:24:21.459Z,13.33
2019-05-18T02:25:21.432Z,13.30
2019-05-18T02:26:21.442Z,13.26
2019-05-18T02:27:21.392Z,13.30
2019-05-18T02:28:21.382Z,13.33
2019-05-18T02:29:21.379Z,13.33
2019-05-18T02:30:21.357Z,13.28
2019-05-18T02:31:21.356Z,13.26
2019-05-18T02:32:21.337Z,13.33
2019-05-18T02:33:21.321Z,13.26
2019-05-18T02:34:21.319Z,13.30
2019-05-18T02:35:21.310Z,13.30
2019-05-18T02:36:21.304Z,13.22
2019-05-18T02:37:26.243Z,13.20
2019-05-18T02:38:21.267Z,13.30
2019-05-18T02:39:21.253Z,13.19
2019-05-18T02:40:21.244Z,13.10
2019-05-18T02:41:21.246Z,13.17
2019-05-18T02:42:21.332Z,13.30
2019-05-18T02:43:21.230Z,13.14
2019-05-18T02:44:21.204Z,13.19
2019-05-18T02:45:21.191Z,13.17
2019-05-18T02:46:21.196Z,13.14
2019-05-18T02:47:21.162Z,13.11
2019-05-18T02:48:21.164Z,13.19
2019-05-18T02:49:21.139Z,13.17
2019-05-18T02:50:21.132Z,13.19
2019-05-18T02:51:21.131Z,13.19
2019-05-18T02:52:21.106Z,13.08
2019-05-18T02:53:21.203Z,13.20
2019-05-18T02:54:21.082Z,13.08
2019-05-18T02:55:21.080Z,13.14
2019-05-18T02:56:21.087Z,13.15
2019-05-18T02:57:21.066Z,13.08
2019-05-18T02:58:21.044Z,13.15
2019-05-18T02:59:21.031Z,13.15
2019-05-18T03:00:21.017Z,12.97
2019-05-18T03:01:21.017Z,13.10
2019-05-18T03:02:20.993Z,13.07
2019-05-18T03:03:20.988Z,13.07
2019-05-18T03:04:20.973Z,13.10
2019-05-18T03:05:20.992Z,13.07
2019-05-18T03:06:20.966Z,13.08
2019-05-18T03:07:20.943Z,13.00
2019-05-18T03:08:20.943Z,13.11
2019-05-18T03:09:20.920Z,13.11
2019-05-18T03:10:20.904Z,13.05
2019-05-18T03:11:20.907Z,13.07
2019-05-18T03:12:20.901Z,12.96
2019-05-18T03:13:20.869Z,13.05
2019-05-18T03:14:20.860Z,13.08
2019-05-18T03:15:20.855Z,13.10
2019-05-18T03:16:20.838Z,13.01
2019-05-18T03:17:20.834Z,13.08
2019-05-18T03:18:20.813Z,13.01
2019-05-18T03:19:20.808Z,13.08
2019-05-18T03:20:20.801Z,13.07
2019-05-18T03:21:20.784Z,13.04
2019-05-18T03:22:20.791Z,12.97
2019-05-18T03:23:20.765Z,13.07
2019-05-18T03:24:20.745Z,13.07
2019-05-18T03:25:20.740Z,13.01
2019-05-18T03:26:20.730Z,12.96
2019-05-18T03:27:20.724Z,13.00
2019-05-18T03:28:20.706Z,12.96
2019-05-18T03:29:20.700Z,12.96
2019-05-18T03:30:20.678Z,12.93
2019-05-18T03:31:20.667Z,13.01
2019-05-18T03:32:20.688Z,13.00
2019-05-18T03:33:20.656Z,12.97
2019-05-18T03:34:20.641Z,12.97
2019-05-18T03:35:20.627Z,12.96
2019-05-18T03:36:20.614Z,13.03
2019-05-18T03:37:20.611Z,13.00
2019-05-18T03:38:20.595Z,13.00
2019-05-18T03:39:20.583Z,13.00
2019-05-18T03:40:20.567Z,12.93
2019-05-18T03:41:20.569Z,12.97
2019-05-18T03:42:20.562Z,12.96
2019-05-18T03:43:20.539Z,12.97
2019-05-18T03:44:20.540Z,12.93
2019-05-18T03:45:20.524Z,12.95
2019-05-18T03:46:23.936Z,12.92
2019-05-18T03:47:20.503Z,12.92
2019-05-18T03:48:20.482Z,12.93
2019-05-18T03:49:26.974Z,12.93
2019-05-18T03:50:21.465Z,12.93
2019-05-18T03:51:20.447Z,12.95
2019-05-18T03:52:20.446Z,12.92
2019-05-18T03:53:20.430Z,12.92
2019-05-18T03:54:20.410Z,12.93
2019-05-18T03:55:20.403Z,12.90
2019-05-18T03:56:20.405Z,12.92
2019-05-18T03:57:20.387Z,12.90
2019-05-18T03:58:20.362Z,12.96
2019-05-18T03:59:20.357Z,12.95
2019-05-18T04:00:20.364Z,12.96
2019-05-18T04:01:20.330Z,12.96
2019-05-18T04:02:20.334Z,13.00
2019-05-18T04:03:20.308Z,12.96
2019-05-18T04:04:20.301Z,12.97
2019-05-18T04:05:20.328Z,13.00
2019-05-18T04:06:20.277Z,13.00
2019-05-18T04:07:20.289Z,12.96
2019-05-18T04:08:20.258Z,13.03
2019-05-18T04:09:20.254Z,13.01
2019-05-18T04:10:20.230Z,13.03
2019-05-18T04:11:20.233Z,12.96
2019-05-18T04:12:20.243Z,12.95
2019-05-18T04:13:20.200Z,12.95
2019-05-18T04:14:20.182Z,12.97
2019-05-18T04:15:20.171Z,12.97
2019-05-18T04:16:20.159Z,12.97
2019-05-18T04:17:20.165Z,13.00
2019-05-18T04:18:20.154Z,13.04
2019-05-18T04:19:20.131Z,13.08
2019-05-18T04:20:20.114Z,13.00
2019-05-18T04:21:20.104Z,13.04
2019-05-18T04:22:20.106Z,12.96
2019-05-18T04:23:20.081Z,13.00
2019-05-18T04:24:20.074Z,12.97
2019-05-18T04:25:20.064Z,13.00
2019-05-18T04:26:20.046Z,12.95
2019-05-18T04:27:20.054Z,12.97
2019-05-18T04:28:20.034Z,12.96
2019-05-18T04:29:20.017Z,12.97
2019-05-18T04:30:20.015Z,13.00
2019-05-18T04:31:20.004Z,12.96
2019-05-18T04:32:19.980Z,12.96
2019-05-18T04:33:19.979Z,13.00
2019-05-18T04:34:19.969Z,13.03
2019-05-18T04:35:19.954Z,12.97
2019-05-18T04:36:19.942Z,13.03
2019-05-18T04:37:19.929Z,13.03
2019-05-18T04:38:19.933Z,12.96
2019-05-18T04:39:19.905Z,12.96
2019-05-18T04:40:19.891Z,13.00
2019-05-18T04:41:19.880Z,13.01
2019-05-18T04:42:19.881Z,12.97
2019-05-18T04:43:19.875Z,12.95
2019-05-18T04:44:19.860Z,12.96
2019-05-18T04:45:19.837Z,13.00
2019-05-18T04:46:19.819Z,13.05
2019-05-18T04:47:19.813Z,13.07
2019-05-18T04:48:19.810Z,13.07
2019-05-18T04:49:19.790Z,13.12
2019-05-18T04:50:19.786Z,13.08
2019-05-18T04:51:19.779Z,13.14
2019-05-18T04:52:19.768Z,13.07
2019-05-18T04:53:19.759Z,13.11
2019-05-18T04:54:19.734Z,13.00
2019-05-18T04:55:19.729Z,12.95
2019-05-18T04:56:19.715Z,13.04
2019-05-18T04:57:19.701Z,13.01
2019-05-18T04:58:19.693Z,13.03
2019-05-18T04:59:19.684Z,13.01
2019-05-18T05:00:19.668Z,12.97
2019-05-18T05:01:19.669Z,12.93
2019-05-18T05:02:19.645Z,12.96
2019-05-18T05:03:19.648Z,12.96
2019-05-18T05:04:19.623Z,12.97
2019-05-18T05:05:19.616Z,12.96
2019-05-18T05:06:19.599Z,12.95
2019-05-18T05:07:19.581Z,12.95
2019-05-18T05:08:19.587Z,12.93
2019-05-18T05:09:19.568Z,12.95
2019-05-18T05:10:19.553Z,12.92
2019-05-18T05:11:19.540Z,12.96
2019-05-18T05:12:19.528Z,12.96
2019-05-18T05:13:19.524Z,12.95
2019-05-18T05:14:19.501Z,12.92
2019-05-18T05:15:19.497Z,12.93
2019-05-18T05:16:19.496Z,12.96
2019-05-18T05:17:19.469Z,13.00
2019-05-18T05:18:19.466Z,12.95
2019-05-18T05:19:19.449Z,13.10
2019-05-18T05:20:20.301Z,13.10
2019-05-18T05:21:19.425Z,13.10
2019-05-18T05:22:19.409Z,13.20
2019-05-18T05:23:19.411Z,13.14
2019-05-18T05:24:19.400Z,13.28
2019-05-18T05:25:19.375Z,13.14
2019-05-18T05:26:19.377Z,13.11
2019-05-18T05:27:19.358Z,13.14
2019-05-18T05:28:19.379Z,13.10
2019-05-18T05:29:19.339Z,13.26
2019-05-18T05:30:19.319Z,13.22
2019-05-18T05:31:19.309Z,13.28
2019-05-18T05:32:19.301Z,13.25
2019-05-18T05:33:19.314Z,13.23
2019-05-18T05:34:19.273Z,13.29
2019-05-18T05:35:19.266Z,13.26
2019-05-18T05:36:19.261Z,13.30
2019-05-18T05:37:19.264Z,13.25
2019-05-18T05:38:19.247Z,13.38
2019-05-18T05:39:19.218Z,13.28
2019-05-18T05:40:19.211Z,13.36
2019-05-18T05:41:19.207Z,13.39
2019-05-18T05:42:19.189Z,13.45
2019-05-18T05:43:19.185Z,13.41
2019-05-18T05:44:19.162Z,13.41
2019-05-18T05:45:19.154Z,13.42
2019-05-18T05:46:19.147Z,13.49
2019-05-18T05:47:19.131Z,13.48
2019-05-18T05:48:19.129Z,13.57
2019-05-18T05:49:19.113Z,13.52
2019-05-18T05:50:34.155Z,13.60
2019-05-18T05:51:20.080Z,13.51
2019-05-18T05:52:19.115Z,13.59
2019-05-18T05:53:19.061Z,13.60
2019-05-18T05:54:19.071Z,13.62
2019-05-18T05:55:19.037Z,13.62
2019-05-18T05:56:19.033Z,13.70
2019-05-18T05:57:19.020Z,13.63
2019-05-18T05:58:19.003Z,13.71
2019-05-18T05:59:18.999Z,13.81
2019-05-18T06:00:18.986Z,13.82
2019-05-18T06:01:18.977Z,13.75
2019-05-18T06:02:18.967Z,13.85
2019-05-18T06:03:18.946Z,13.85
2019-05-18T06:04:18.950Z,13.91
2019-05-18T06:05:18.929Z,13.89
2019-05-18T06:06:18.913Z,14.00
2019-05-18T06:07:18.901Z,14.03
2019-05-18T06:08:18.897Z,14.04
2019-05-18T06:09:18.902Z,14.03
2019-05-18T06:10:18.868Z,14.03
2019-05-18T06:11:18.858Z,14.09
2019-05-18T06:12:18.845Z,14.17
2019-05-18T06:13:18.851Z,14.20
2019-05-18T06:14:18.843Z,14.21
2019-05-18T06:15:18.815Z,14.27
2019-05-18T06:16:18.816Z,14.33
2019-05-18T06:17:18.791Z,14.32
2019-05-18T06:18:18.782Z,14.28
2019-05-18T06:19:18.787Z,14.29
2019-05-18T06:20:18.802Z,14.39
2019-05-18T06:21:18.756Z,14.40
2019-05-18T06:22:18.742Z,14.42
2019-05-18T06:23:18.723Z,14.47
2019-05-18T06:24:18.729Z,14.43
2019-05-18T06:25:18.720Z,14.46
2019-05-18T06:26:18.721Z,14.54
2019-05-18T06:27:18.681Z,14.52
2019-05-18T06:28:18.669Z,14.65
2019-05-18T06:29:18.668Z,14.58
2019-05-18T06:30:18.651Z,14.61
2019-05-18T06:31:18.639Z,14.68
2019-05-18T06:32:18.634Z,14.73
2019-05-18T06:33:18.619Z,14.77
2019-05-18T06:34:18.626Z,14.73
2019-05-18T06:35:18.598Z,14.80
2019-05-18T06:36:18.596Z,14.84
2019-05-18T06:37:18.580Z,14.88
2019-05-18T06:38:18.585Z,14.89
2019-05-18T06:39:18.558Z,14.91
2019-05-18T06:40:18.538Z,14.98
2019-05-18T06:41:18.534Z,14.92
2019-05-18T06:42:18.521Z,15.07
2019-05-18T06:43:18.503Z,15.09
2019-05-18T06:44:18.503Z,15.02
2019-05-18T06:45:18.512Z,15.03
2019-05-18T06:46:18.469Z,15.06
2019-05-18T06:47:18.460Z,15.11
2019-05-18T06:48:18.458Z,15.19
2019-05-18T06:49:18.456Z,15.16
2019-05-18T06:50:18.429Z,15.11
2019-05-18T06:51:18.418Z,15.16
2019-05-18T06:52:18.400Z,15.21
2019-05-18T06:53:18.392Z,15.27
2019-05-18T06:54:18.399Z,15.28
2019-05-18T06:55:18.383Z,15.25
2019-05-18T06:56:18.352Z,15.34
2019-05-18T06:57:18.340Z,15.32
2019-05-18T06:58:18.341Z,15.39
2019-05-18T06:59:18.337Z,15.35
2019-05-18T07:00:18.309Z,15.44
2019-05-18T07:01:18.300Z,15.38
2019-05-18T07:02:18.283Z,15.38
2019-05-18T07:03:18.279Z,15.46
2019-05-18T07:04:18.269Z,15.49
2019-05-18T07:05:18.260Z,15.53
2019-05-18T07:06:18.244Z,15.54
2019-05-18T07:07:18.228Z,15.56
2019-05-18T07:08:18.226Z,15.62
2019-05-18T07:09:18.211Z,15.59
2019-05-18T07:10:18.211Z,15.64
2019-05-18T07:11:18.189Z,15.65
2019-05-18T07:12:18.187Z,15.69
2019-05-18T07:13:18.166Z,15.76
2019-05-18T07:14:25.659Z,15.75
2019-05-18T07:15:19.158Z,15.74
2019-05-18T07:16:18.137Z,15.80
2019-05-18T07:17:18.122Z,15.82
2019-05-18T07:18:18.104Z,15.86
2019-05-18T07:19:18.094Z,15.83
2019-05-18T07:20:18.098Z,15.94
2019-05-18T07:21:22.267Z,15.90
2019-05-18T07:22:18.081Z,15.90
2019-05-18T07:23:18.055Z,16.02
2019-05-18T07:24:18.042Z,16.00
2019-05-18T07:25:18.039Z,16.04
2019-05-18T07:26:18.030Z,16.09
2019-05-18T07:27:18.015Z,16.17
2019-05-18T07:28:18.010Z,16.17
2019-05-18T07:29:17.993Z,16.21
2019-05-18T07:30:17.991Z,16.23
2019-05-18T07:31:17.964Z,16.21
2019-05-18T07:32:17.950Z,16.23
2019-05-18T07:33:17.951Z,16.30
2019-05-18T07:34:17.935Z,16.23
2019-05-18T07:35:17.944Z,16.33
2019-05-18T07:36:17.911Z,16.38
2019-05-18T07:37:17.898Z,16.31
2019-05-18T07:38:17.883Z,16.38
2019-05-18T07:39:17.880Z,16.41
2019-05-18T07:40:17.880Z,16.33
2019-05-18T07:41:17.853Z,16.33
2019-05-18T07:42:17.838Z,16.56
2019-05-18T07:43:17.844Z,16.41
2019-05-18T07:44:17.816Z,16.42
2019-05-18T07:45:17.820Z,16.48
2019-05-18T07:46:17.799Z,16.45
2019-05-18T07:47:17.787Z,16.50
2019-05-18T07:48:17.776Z,16.48
2019-05-18T07:49:17.761Z,16.56
2019-05-18T07:50:17.766Z,16.66
2019-05-18T07:51:17.739Z,16.68
2019-05-18T07:52:17.728Z,16.78
2019-05-18T07:53:17.712Z,16.81
2019-05-18T07:54:17.707Z,16.94
2019-05-18T07:55:17.704Z,16.83
2019-05-18T07:56:17.685Z,17.00
2019-05-18T07:57:17.669Z,16.94
2019-05-18T07:58:17.659Z,17.00
2019-05-18T07:59:19.858Z,17.03
2019-05-18T08:00:17.641Z,17.06
2019-05-18T08:01:17.629Z,17.06
2019-05-18T08:02:17.616Z,17.15
2019-05-18T08:03:17.621Z,17.11
2019-05-18T08:04:17.591Z,17.14
2019-05-18T08:05:17.593Z,17.16
2019-05-18T08:06:17.566Z,17.18
2019-05-18T08:07:17.565Z,17.23
2019-05-18T08:08:17.543Z,17.26
2019-05-18T08:09:17.556Z,17.26
2019-05-18T08:10:17.538Z,17.37
2019-05-18T08:11:17.514Z,17.34
2019-05-18T08:12:17.505Z,17.51
2019-05-18T08:13:17.498Z,17.46
2019-05-18T08:14:17.482Z,17.54
2019-05-18T08:15:17.463Z,17.46
2019-05-18T08:16:17.466Z,17.56
2019-05-18T08:17:17.442Z,17.63
2019-05-18T08:18:17.439Z,17.66
2019-05-18T08:19:17.422Z,17.77
2019-05-18T08:20:17.410Z,17.79
2019-05-18T08:21:17.420Z,17.79
2019-05-18T08:22:17.395Z,17.84
2019-05-18T08:23:17.387Z,17.92
2019-05-18T08:24:17.374Z,17.96
2019-05-18T08:25:17.355Z,17.92
2019-05-18T08:26:17.351Z,17.93
2019-05-18T08:27:17.338Z,18.00
2019-05-18T08:28:17.317Z,18.02
2019-05-18T08:29:17.330Z,18.05
2019-05-18T08:30:17.301Z,18.05
2019-05-18T08:31:17.302Z,18.03
2019-05-18T08:32:17.288Z,18.15
2019-05-18T08:33:17.374Z,18.12
2019-05-18T08:34:17.254Z,18.12
2019-05-18T08:35:17.239Z,18.27
2019-05-18T08:36:17.238Z,18.17
2019-05-18T08:37:17.220Z,18.26
2019-05-18T08:38:17.207Z,18.26
2019-05-18T08:39:17.194Z,18.25
2019-05-18T08:40:17.199Z,18.29
2019-05-18T08:41:17.193Z,18.36
2019-05-18T08:42:17.170Z,18.37
2019-05-18T08:43:17.151Z,18.42
2019-05-18T08:44:17.162Z,18.45
2019-05-18T08:45:17.129Z,18.48
2019-05-18T08:46:17.131Z,18.57
2019-05-18T08:47:17.108Z,18.52
2019-05-18T08:48:17.096Z,18.62
2019-05-18T08:49:17.085Z,18.65
2019-05-18T08:50:17.075Z,18.62
2019-05-18T08:51:17.091Z,18.62
2019-05-18T08:52:17.052Z,18.67
2019-05-18T08:53:17.039Z,18.67
2019-05-18T08:54:17.041Z,18.60
2019-05-18T08:55:17.030Z,18.69
2019-05-18T08:56:17.015Z,18.76
2019-05-18T08:57:16.994Z,18.78
2019-05-18T08:58:17.002Z,18.80
2019-05-18T08:59:16.974Z,18.75
2019-05-18T09:00:16.966Z,18.81
2019-05-18T09:01:16.962Z,18.81
2019-05-18T09:02:16.943Z,18.81
2019-05-18T09:03:16.926Z,18.82
2019-05-18T09:04:16.924Z,18.82
2019-05-18T09:05:16.906Z,18.87
2019-05-18T09:06:16.912Z,18.91
2019-05-18T09:07:16.891Z,18.95
2019-05-18T09:08:16.922Z,18.94
2019-05-18T09:09:16.866Z,19.00
2019-05-18T09:10:16.849Z,19.07
2019-05-18T09:11:16.837Z,19.13
2019-05-18T09:12:16.835Z,19.22
2019-05-18T09:13:16.811Z,19.26
2019-05-18T09:14:16.801Z,19.16
2019-05-18T09:15:16.791Z,19.32
2019-05-18T09:16:16.792Z,19.33
2019-05-18T09:17:16.791Z,19.46
2019-05-18T09:18:16.762Z,19.44
2019-05-18T09:19:16.768Z,19.51
2019-05-18T09:20:16.756Z,19.50
2019-05-18T09:21:16.729Z,19.56
2019-05-18T09:22:23.335Z,19.69
2019-05-18T09:23:17.703Z,19.68
2019-05-18T09:24:16.689Z,19.68
2019-05-18T09:25:16.684Z,19.69
2019-05-18T09:26:16.672Z,19.77
2019-05-18T09:27:16.671Z,19.84
2019-05-18T09:28:16.655Z,19.86
2019-05-18T09:29:16.661Z,19.91
2019-05-18T09:30:16.627Z,19.92
2019-05-18T09:31:16.611Z,19.87
2019-05-18T09:32:16.656Z,19.88
2019-05-18T09:33:16.605Z,19.95
2019-05-18T09:34:16.586Z,19.94
2019-05-18T09:35:16.577Z,19.92
2019-05-18T09:36:16.584Z,19.95
2019-05-18T09:37:16.564Z,19.94
2019-05-18T09:38:16.550Z,20.01
2019-05-18T09:39:16.541Z,20.03
2019-05-18T09:40:16.558Z,19.95
2019-05-18T09:41:16.504Z,20.06
2019-05-18T09:42:16.505Z,20.08
2019-05-18T09:43:16.494Z,20.05
2019-05-18T09:44:16.479Z,20.16
2019-05-18T09:45:16.466Z,20.18
2019-05-18T09:46:16.448Z,20.13
2019-05-18T09:47:16.449Z,20.20
2019-05-18T09:48:16.425Z,20.21
2019-05-18T09:49:16.426Z,20.26
2019-05-18T09:50:16.406Z,20.26
2019-05-18T09:51:16.391Z,20.23
2019-05-18T09:52:16.403Z,20.38
2019-05-18T09:53:16.369Z,20.47
2019-05-18T09:54:16.357Z,20.47
2019-05-18T09:55:16.342Z,20.48
2019-05-18T09:56:16.335Z,20.50
2019-05-18T09:57:16.329Z,20.43
2019-05-18T09:58:16.308Z,20.61
2019-05-18T09:59:16.302Z,20.66
2019-05-18T10:00:16.313Z,20.67
2019-05-18T10:01:16.284Z,20.77
2019-05-18T10:02:16.284Z,20.77
2019-05-18T10:03:16.264Z,20.82
2019-05-18T10:04:16.241Z,20.76
2019-05-18T10:05:16.228Z,20.85
2019-05-18T10:06:16.224Z,20.89
2019-05-18T10:07:16.262Z,20.85
2019-05-18T10:08:16.199Z,20.87
2019-05-18T10:09:16.182Z,20.97
2019-05-18T10:10:16.174Z,20.97
2019-05-18T10:11:16.169Z,20.87
2019-05-18T10:12:16.166Z,21.07
2019-05-18T10:13:16.155Z,21.13
2019-05-18T10:14:16.166Z,21.10
2019-05-18T10:15:16.122Z,21.10
2019-05-18T10:16:16.107Z,21.17
2019-05-18T10:17:16.113Z,21.29
2019-05-18T10:18:16.096Z,21.32
2019-05-18T10:19:16.078Z,21.47
2019-05-18T10:20:16.062Z,21.42
2019-05-18T10:21:16.062Z,21.49
2019-05-18T10:22:16.067Z,21.58
2019-05-18T10:23:16.039Z,21.52
2019-05-18T10:24:16.026Z,21.61
2019-05-18T10:25:16.004Z,21.69
2019-05-18T10:26:15.995Z,21.75
2019-05-18T10:27:16.007Z,21.82
2019-05-18T10:28:15.980Z,21.79
2019-05-18T10:29:15.992Z,21.69
2019-05-18T10:30:15.969Z,21.83
2019-05-18T10:31:15.940Z,21.84
2019-05-18T10:32:15.934Z,21.92
2019-05-18T10:33:15.930Z,21.98
2019-05-18T10:34:15.909Z,22.09
2019-05-18T10:35:15.928Z,22.07
2019-05-18T10:36:15.905Z,22.20
2019-05-18T10:37:15.869Z,22.62
2019-05-18T10:38:15.874Z,23.66
2019-05-18T10:39:15.853Z,25.35
2019-05-18T10:40:15.836Z,26.89
2019-05-18T10:41:15.827Z,28.37
2019-05-18T10:42:15.842Z,29.70
2019-05-18T10:43:15.849Z,30.64
2019-05-18T10:44:15.798Z,31.96
2019-05-18T10:45:15.782Z,32.99
2019-05-18T10:46:15.778Z,33.50
2019-05-18T10:47:15.760Z,34.24
2019-05-18T10:48:15.765Z,34.99
2019-05-18T10:49:15.747Z,35.66
2019-05-18T10:50:15.735Z,36.39
2019-05-18T10:51:15.721Z,36.69
2019-05-18T10:52:15.710Z,36.99
2019-05-18T10:53:27.969Z,37.25
2019-05-18T10:54:16.696Z,37.28
2019-05-18T10:55:15.687Z,37.63
2019-05-18T10:56:15.687Z,37.46
2019-05-18T10:57:15.663Z,37.00
2019-05-18T10:58:15.670Z,37.72
2019-05-18T10:59:15.663Z,37.98
2019-05-18T11:00:15.647Z,35.85
2019-05-18T11:01:15.642Z,34.66
2019-05-18T11:02:15.627Z,33.91
2019-05-18T11:03:15.636Z,32.78
2019-05-18T11:04:15.604Z,31.66
2019-05-18T11:05:15.600Z,30.69
2019-05-18T11:06:15.581Z,29.78
2019-05-18T11:07:15.576Z,29.05
2019-05-18T11:08:15.584Z,28.44
2019-05-18T11:09:15.555Z,28.40
2019-05-18T11:10:15.550Z,27.84
2019-05-18T11:11:15.541Z,27.29
2019-05-18T11:12:15.529Z,28.88
2019-05-18T11:13:17.204Z,30.84
2019-05-18T11:14:18.734Z,31.89
2019-05-18T11:15:15.498Z,33.29
2019-05-18T11:16:15.490Z,34.22
2019-05-18T11:17:15.497Z,35.25
2019-05-18T11:18:15.473Z,35.93
2019-05-18T11:19:15.462Z,36.51
2019-05-18T11:20:15.451Z,36.99
2019-05-18T11:21:15.433Z,36.91
2019-05-18T11:22:15.431Z,35.23
2019-05-18T11:23:15.432Z,33.82
2019-05-18T11:24:15.418Z,34.19
2019-05-18T11:25:15.403Z,35.50
2019-05-18T11:26:15.399Z,36.54
2019-05-18T11:27:15.386Z,37.13
2019-05-18T11:28:15.378Z,37.70
2019-05-18T11:29:15.366Z,37.76
2019-05-18T11:30:15.355Z,38.20
2019-05-18T11:31:15.343Z,38.84
2019-05-18T11:32:19.967Z,39.25
2019-05-18T11:33:15.376Z,39.06
2019-05-18T11:34:15.391Z,39.44
2019-05-18T11:35:15.321Z,39.51
2019-05-18T11:36:15.312Z,39.73
2019-05-18T11:37:15.309Z,39.60
2019-05-18T11:38:15.327Z,39.92
2019-05-18T11:39:15.302Z,38.41
2019-05-18T11:40:15.309Z,37.28
2019-05-18T11:41:15.274Z,35.66
2019-05-18T11:42:15.258Z,34.35
2019-05-18T11:43:15.246Z,33.06
2019-05-18T11:44:15.256Z,32.45
2019-05-18T11:45:15.230Z,33.78
2019-05-18T11:46:15.240Z,33.84
2019-05-18T11:47:20.095Z,33.39
2019-05-18T11:48:15.231Z,34.37
2019-05-18T11:49:15.240Z,33.15
2019-05-18T11:50:15.200Z,33.14
2019-05-18T11:51:15.193Z,33.94
2019-05-18T11:52:15.172Z,32.50
2019-05-18T11:53:15.191Z,31.44
2019-05-18T11:54:15.201Z,30.89
2019-05-18T11:55:15.144Z,30.34
2019-05-18T11:56:15.135Z,29.64
2019-05-18T11:57:15.213Z,29.37
2019-05-18T11:58:15.114Z,30.19
2019-05-18T11:59:15.930Z,29.71
2019-05-18T12:00:15.101Z,31.57
2019-05-18T12:01:15.089Z,32.72
2019-05-18T12:02:15.101Z,33.97
2019-05-18T12:03:15.070Z,33.16
2019-05-18T12:04:15.081Z,32.96
2019-05-18T12:05:15.072Z,31.91
2019-05-18T12:06:15.049Z,31.12
2019-05-18T12:07:15.034Z,30.42
2019-05-18T12:08:15.020Z,29.68
2019-05-18T12:09:15.021Z,29.30
2019-05-18T12:10:18.240Z,30.86
2019-05-18T12:11:14.997Z,30.88
2019-05-18T12:12:15.016Z,30.49
2019-05-18T12:13:14.972Z,31.85
2019-05-18T12:14:14.977Z,32.92
2019-05-18T12:15:14.963Z,33.91
2019-05-18T12:16:17.433Z,34.72
2019-05-18T12:17:14.950Z,35.47
2019-05-18T12:18:14.941Z,35.56
2019-05-18T12:19:14.963Z,33.90
2019-05-18T12:20:14.918Z,32.66
2019-05-18T12:21:14.896Z,31.80
2019-05-18T12:22:14.947Z,30.95
2019-05-18T12:23:14.883Z,30.34
2019-05-18T12:24:16.081Z,30.05
2019-05-18T12:25:14.870Z,29.87
2019-05-18T12:26:14.852Z,29.57
2019-05-18T12:27:14.843Z,29.15
2019-05-18T12:28:14.841Z,28.55
2019-05-18T12:29:14.868Z,28.24
2019-05-18T12:30:14.814Z,27.84
2019-05-18T12:31:14.807Z,27.47
2019-05-18T12:32:14.800Z,28.30
2019-05-18T12:33:14.775Z,28.66
2019-05-18T12:34:14.780Z,28.39
2019-05-18T12:35:14.763Z,27.88
2019-05-18T12:36:15.807Z,27.49
2019-05-18T12:37:14.742Z,28.29
2019-05-18T12:38:14.725Z,28.49
2019-05-18T12:39:14.727Z,29.06
2019-05-18T12:40:14.714Z,28.52
2019-05-18T12:41:14.707Z,28.22
2019-05-18T12:42:14.689Z,28.55
2019-05-18T12:43:14.698Z,29.67
2019-05-18T12:44:14.717Z,29.34
2019-05-18T12:45:14.663Z,30.10
2019-05-18T12:46:14.647Z,29.36
2019-05-18T12:47:14.728Z,28.81
2019-05-18T12:48:14.630Z,28.34
2019-05-18T12:49:14.636Z,28.12
2019-05-18T12:50:14.611Z,28.11
2019-05-18T12:51:14.601Z,29.16
2019-05-18T12:52:14.596Z,30.24